Aérodrome :
LOGIN :

S'inscrire | Disclaimer

   EN    FR    IT 

 










Légende :    VFR   VFR Marginal   IFR   IFR Intensif   IFR Très Intensif
Visi : 
Plafond : 
>= 8 km
>= 3000ft
5 à 8 km
1000 à 3000 ft
1500m à 5 km
500 à 1000 ft
800 à 1500m
200 à 500 ft
< 800m
< 200 ft
Symboles :   Orages  Brouillard  Fortes neiges  Fortes précipitations  Vent > 20 kt
SIGMETs :   Divers  Orages  Givrage  Turbulence  Onde Orograph.  Cendres Volcan.







- Altitude de l'aérodrome : 274 ft
- Code IATA : PUY


LDPL - Pula

DERNIER METAR :
  • 301230Z 02007KT 340V070 CAVOK 18/01 Q1014 NOSIG

METARs EXPIRÉS :
  • 301200Z VRB07KT CAVOK 18/02 Q1014 NOSIG
  • 301130Z 04008KT 350V080 CAVOK 17/02 Q1015 NOSIG
  • 301100Z 07012KT 010V090 CAVOK 17/01 Q1015 NOSIG
  • 301030Z 05011KT 010V080 CAVOK 16/01 Q1015 NOSIG
  • 301000Z 05014KT 020V100 CAVOK 16/02 Q1015 NOSIG

TAF TAF LDPL
Valide du 30 à 12h jusqu'au 01 à 12h UTC


301125Z 3012/0112 06010KT CAVOK TX18/3013Z TN08/0102Z
BECMG 0100/0102 VRB02KT
Pas de NOTAMs connus pour ce terrain.



MET'MAP, la Météo Aéronautique d'un coup d'oeil ! - Copyright ORBIFLY Décembre 2007 - Disclaimer

ORBIFLY MET'MAP TEAM :

Programmation & Développement : Alexandra Zaïnal
Conception & Développement : Baudouin d'Aumeries
Co-Programmation & Développement : Marc-Olivier Méhu
Soutien technique & logistique : Manuel Goepfert

Contact : metmap@orbifly.com




SOURCES & CREDITS :

   NOAA